createdAt,value
2023-04-05T00:01:20.154Z,61.70
2023-04-05T00:06:26.745Z,62.20
2023-04-05T00:11:33.037Z,62.80
2023-04-05T00:16:36.523Z,62.30
2023-04-05T00:21:40.650Z,62.70
2023-04-05T00:26:46.513Z,62.60
2023-04-05T00:31:49.540Z,63.60
2023-04-05T00:36:53.067Z,63.00
2023-04-05T00:41:56.286Z,63.40
2023-04-05T00:46:59.287Z,63.30
2023-04-05T00:52:02.668Z,63.70
2023-04-05T00:57:07.154Z,63.40
2023-04-05T01:02:39.421Z,63.70
2023-04-05T01:07:58.878Z,63.80
2023-04-05T01:13:02.354Z,63.60
2023-04-05T01:18:06.064Z,63.30
2023-04-05T01:23:54.768Z,63.40
2023-04-05T01:29:50.817Z,63.80
2023-04-05T01:35:08.336Z,64.10
2023-04-05T01:40:11.908Z,64.30
2023-04-05T01:45:14.911Z,64.70
2023-04-05T01:50:18.070Z,64.40
2023-04-05T01:55:20.969Z,64.70
2023-04-05T02:00:24.500Z,64.90
2023-04-05T02:05:27.293Z,65.20
2023-04-05T02:10:30.428Z,65.10
2023-04-05T02:15:34.140Z,65.10
2023-04-05T02:20:37.438Z,65.20
2023-04-05T02:25:40.387Z,65.50
2023-04-05T02:30:43.496Z,65.20
2023-04-05T02:35:50.475Z,65.70
2023-04-05T02:40:53.477Z,65.20
2023-04-05T02:45:56.483Z,65.30
2023-04-05T02:50:59.528Z,65.80
2023-04-05T02:56:02.608Z,65.90
2023-04-05T03:01:07.573Z,65.90
2023-04-05T03:06:10.776Z,65.70
2023-04-05T03:11:14.153Z,65.80
2023-04-05T03:16:17.477Z,66.10
2023-04-05T03:21:21.365Z,65.90
2023-04-05T03:26:24.619Z,65.70
2023-04-05T03:31:30.457Z,66.30
2023-04-05T03:36:42.051Z,65.90
2023-04-05T03:41:45.032Z,66.30
2023-04-05T03:46:48.124Z,66.30
2023-04-05T03:51:51.100Z,66.30
2023-04-05T03:56:54.207Z,66.20
2023-04-05T04:01:57.187Z,66.40
2023-04-05T04:07:00.198Z,66.40
2023-04-05T04:12:04.015Z,66.60
2023-04-05T04:17:07.595Z,66.70
2023-04-05T04:22:10.543Z,66.80
2023-04-05T04:27:13.567Z,66.60
2023-04-05T04:32:17.467Z,67.30
2023-04-05T04:37:22.667Z,67.30
2023-04-05T04:42:26.437Z,67.20
2023-04-05T04:47:30.722Z,67.30
2023-04-05T04:52:34.399Z,67.30
2023-04-05T04:57:37.454Z,67.10
2023-04-05T05:02:42.278Z,67.70
2023-04-05T05:07:45.337Z,67.40
2023-04-05T05:12:51.907Z,67.40
2023-04-05T05:17:58.404Z,67.50
2023-04-05T05:23:02.794Z,67.50
2023-04-05T05:28:05.777Z,67.00
2023-04-05T05:33:08.893Z,66.60
2023-04-05T05:38:13.780Z,66.20
2023-04-05T05:43:16.744Z,65.60
2023-04-05T05:48:20.939Z,65.10
2023-04-05T05:53:24.037Z,64.20
2023-04-05T05:58:26.956Z,63.80
2023-04-05T06:03:30.599Z,64.20
2023-04-05T06:08:33.550Z,64.30
2023-04-05T06:13:37.983Z,63.10
2023-04-05T06:18:42.219Z,62.30
2023-04-05T06:23:45.310Z,61.40
2023-04-05T06:28:48.496Z,61.50
2023-04-05T06:33:51.491Z,60.20
2023-04-05T06:38:54.489Z,60.10
2023-04-05T06:43:57.543Z,58.90
2023-04-05T06:49:03.159Z,59.10
2023-04-05T06:54:07.093Z,58.10
2023-04-05T06:59:10.155Z,57.70
2023-04-05T07:04:13.287Z,57.00
2023-04-05T07:09:16.342Z,56.70
2023-04-05T07:14:19.308Z,57.30
2023-04-05T07:19:22.516Z,56.60
2023-04-05T07:24:25.751Z,56.40
2023-04-05T07:29:28.673Z,56.90
2023-04-05T07:34:31.603Z,56.60
2023-04-05T07:39:37.596Z,55.10
2023-04-05T07:44:40.708Z,56.20
2023-04-05T07:49:43.856Z,56.10
2023-04-05T07:54:46.962Z,56.40
2023-04-05T07:59:53.137Z,54.70
2023-04-05T08:04:56.258Z,53.60
2023-04-05T08:10:00.382Z,52.90
2023-04-05T08:15:04.232Z,52.40
2023-04-05T08:20:08.718Z,51.60
2023-04-05T08:25:11.893Z,51.80
2023-04-05T08:30:16.540Z,52.10
2023-04-05T08:35:19.543Z,49.10
2023-04-05T08:40:26.638Z,50.30
2023-04-05T08:45:31.663Z,50.10
2023-04-05T08:50:34.449Z,50.40
2023-04-05T08:55:40.291Z,49.80
2023-04-05T09:00:44.024Z,48.80
2023-04-05T09:05:51.389Z,48.90
2023-04-05T09:10:54.456Z,48.90
2023-04-05T09:15:58.142Z,48.60
2023-04-05T09:21:05.990Z,47.20
2023-04-05T09:26:19.582Z,47.20
2023-04-05T09:31:37.017Z,47.10
2023-04-05T09:36:45.770Z,45.50
2023-04-05T09:42:13.225Z,45.70
2023-04-05T09:47:35.265Z,42.10
2023-04-05T09:52:38.368Z,44.70
2023-04-05T09:57:43.833Z,44.70
2023-04-05T10:02:47.640Z,43.20
2023-04-05T10:07:52.061Z,43.60
2023-04-05T10:12:55.734Z,41.10
2023-04-05T10:18:17.692Z,41.90
2023-04-05T10:23:35.070Z,42.20
2023-04-05T10:28:43.791Z,42.00
2023-04-05T10:33:51.725Z,42.30
2023-04-05T10:39:28.692Z,43.00
2023-04-05T10:44:34.156Z,43.70
2023-04-05T10:49:52.149Z,44.30
2023-04-05T10:54:57.388Z,44.00
2023-04-05T11:00:01.646Z,41.60
2023-04-05T11:05:27.830Z,41.40
2023-04-05T11:10:32.180Z,41.60
2023-04-05T11:15:36.634Z,40.40
2023-04-05T11:20:53.325Z,40.20
2023-04-05T11:26:06.725Z,39.20
2023-04-05T11:31:22.876Z,38.20
2023-04-05T11:36:47.926Z,38.20
2023-04-05T11:42:04.060Z,36.90
2023-04-05T11:47:08.169Z,36.40
2023-04-05T11:52:19.970Z,35.50
2023-04-05T11:57:24.043Z,35.90
2023-04-05T12:02:27.094Z,34.40
2023-04-05T12:07:32.768Z,35.40
2023-04-05T12:12:41.587Z,35.90
2023-04-05T12:17:50.901Z,35.20
2023-04-05T12:22:56.348Z,34.50
2023-04-05T12:28:08.435Z,34.50
2023-04-05T12:33:13.791Z,34.30
2023-04-05T12:38:17.661Z,34.90
2023-04-05T12:43:20.882Z,33.90
2023-04-05T12:48:26.069Z,34.60
2023-04-05T12:53:29.177Z,34.30
2023-04-05T12:58:40.131Z,34.40
2023-04-05T13:03:48.385Z,34.30
2023-04-05T13:08:52.833Z,33.70
2023-04-05T13:13:55.950Z,33.80
2023-04-05T13:18:58.923Z,34.00
2023-04-05T13:24:02.040Z,34.00
2023-04-05T13:29:05.372Z,34.30
2023-04-05T13:34:08.688Z,34.80
2023-04-05T13:39:11.656Z,34.50
2023-04-05T13:44:14.652Z,34.70
2023-04-05T13:49:17.613Z,34.60
2023-04-05T13:54:20.558Z,34.30
2023-04-05T13:59:23.622Z,34.90
2023-04-05T14:04:26.674Z,34.60
2023-04-05T14:09:30.493Z,34.80
2023-04-05T14:14:33.437Z,35.10
2023-04-05T14:19:36.534Z,34.90
2023-04-05T14:24:39.572Z,34.30
2023-04-05T14:29:45.672Z,34.40
2023-04-05T14:34:48.739Z,34.80
2023-04-05T14:39:51.684Z,35.20
2023-04-05T14:44:54.693Z,34.90
2023-04-05T14:49:57.926Z,33.90
2023-04-05T14:55:01.173Z,34.60
2023-04-05T15:00:04.823Z,34.60
2023-04-05T15:05:09.650Z,34.90
2023-04-05T15:10:12.696Z,35.50
2023-04-05T15:15:16.017Z,34.20
2023-04-05T15:20:19.270Z,34.30
2023-04-05T15:25:22.198Z,34.20
2023-04-05T15:30:25.579Z,34.60
2023-04-05T15:35:28.687Z,34.80
2023-04-05T15:40:31.844Z,34.90
2023-04-05T15:45:34.845Z,35.20
2023-04-05T15:50:37.838Z,35.30
2023-04-05T15:55:40.945Z,35.30
2023-04-05T16:00:44.251Z,34.80
2023-04-05T16:05:47.021Z,35.30
2023-04-05T16:10:50.408Z,35.70
2023-04-05T16:15:53.446Z,36.00
2023-04-05T16:20:57.478Z,36.10
2023-04-05T16:26:00.283Z,36.60
2023-04-05T16:31:03.992Z,36.50
2023-04-05T16:36:07.191Z,36.80
2023-04-05T16:41:10.447Z,37.20
2023-04-05T16:46:13.370Z,37.80
2023-04-05T16:51:16.366Z,38.10
2023-04-05T16:56:20.074Z,38.40
2023-04-05T17:01:23.102Z,38.90
2023-04-05T17:06:28.077Z,39.20
2023-04-05T17:11:31.264Z,39.70
2023-04-05T17:16:34.422Z,40.50
2023-04-05T17:21:37.421Z,40.70
2023-04-05T17:26:40.761Z,41.50
2023-04-05T17:31:44.624Z,41.90
2023-04-05T17:36:47.775Z,42.70
2023-04-05T17:41:51.005Z,43.00
2023-04-05T17:47:01.618Z,43.70
2023-04-05T17:52:09.058Z,44.30
2023-04-05T17:57:15.407Z,45.40
2023-04-05T18:02:18.781Z,45.50
2023-04-05T18:07:21.895Z,45.50
2023-04-05T18:12:24.903Z,45.60
2023-04-05T18:17:29.268Z,46.20
2023-04-05T18:22:35.066Z,46.60
2023-04-05T18:27:39.534Z,46.50
2023-04-05T18:32:47.540Z,46.90
2023-04-05T18:37:51.043Z,46.90
2023-04-05T18:42:54.067Z,47.20
2023-04-05T18:47:57.151Z,48.50
2023-04-05T18:53:00.605Z,49.50
2023-04-05T18:58:03.615Z,49.10
2023-04-05T19:03:06.551Z,49.40
2023-04-05T19:08:09.590Z,49.80
2023-04-05T19:13:12.615Z,49.80
2023-04-05T19:18:15.749Z,50.30
2023-04-05T19:23:18.799Z,50.40
2023-04-05T19:28:22.000Z,50.50
2023-04-05T19:33:24.981Z,50.50
2023-04-05T19:38:28.078Z,51.10
2023-04-05T19:43:31.824Z,52.50
2023-04-05T19:48:38.794Z,51.50
2023-04-05T19:53:53.679Z,51.50
2023-04-05T19:59:31.616Z,51.00
2023-04-05T20:04:39.002Z,52.60
2023-04-05T20:09:42.833Z,54.70
2023-04-05T20:14:46.465Z,55.80
2023-04-05T20:19:59.179Z,54.50
2023-04-05T20:25:34.717Z,55.90
2023-04-05T20:30:37.836Z,56.00
2023-04-05T20:35:42.482Z,55.40
2023-04-05T20:40:45.592Z,55.50
2023-04-05T20:45:48.826Z,55.30
2023-04-05T20:50:51.991Z,55.60
2023-04-05T20:55:59.069Z,55.70
2023-04-05T21:01:03.425Z,56.50
2023-04-05T21:06:08.803Z,56.40
2023-04-05T21:11:12.053Z,56.50
2023-04-05T21:16:15.307Z,56.80
2023-04-05T21:21:18.387Z,56.70
2023-04-05T21:26:21.468Z,57.60
2023-04-05T21:31:24.741Z,57.60
2023-04-05T21:36:27.989Z,58.00
2023-04-05T21:41:31.098Z,58.80
2023-04-05T21:46:34.202Z,58.60
2023-04-05T21:51:37.733Z,59.10
2023-04-05T21:56:40.686Z,59.80
2023-04-05T22:01:43.857Z,59.70
2023-04-05T22:06:48.353Z,60.10
2023-04-05T22:11:51.938Z,59.00
2023-04-05T22:16:55.804Z,59.90
2023-04-05T22:21:58.830Z,61.30
2023-04-05T22:27:02.768Z,60.60
2023-04-05T22:32:07.068Z,61.40
2023-04-05T22:37:11.193Z,62.50
2023-04-05T22:42:14.270Z,62.30
2023-04-05T22:47:17.263Z,62.30
2023-04-05T22:52:20.521Z,62.30
2023-04-05T22:57:23.497Z,63.00
2023-04-05T23:02:27.941Z,63.30
2023-04-05T23:07:31.270Z,63.90
2023-04-05T23:12:34.217Z,64.10
2023-04-05T23:17:37.567Z,64.30
2023-04-05T23:22:40.852Z,65.70
2023-04-05T23:27:43.682Z,64.80
2023-04-05T23:32:46.715Z,65.20
2023-04-05T23:37:49.891Z,65.60
2023-04-05T23:42:53.008Z,67.00
2023-04-05T23:47:56.082Z,66.20
2023-04-05T23:53:00.936Z,66.00
2023-04-05T23:58:04.067Z,65.70
